sensor_id;sensor_type;location;lat;lon;timestamp;P1;durP1;ratioP1;P2;durP2;ratioP2
69280;SDS011;56392;51.082;17.080;2022-11-12T00:00:13;66.57;;;26.17;;
69280;SDS011;56392;51.082;17.080;2022-11-12T00:05:36;51.07;;;21.63;;
69280;SDS011;56392;51.082;17.080;2022-11-12T00:10:41;48.77;;;20.60;;
69280;SDS011;56392;51.082;17.080;2022-11-12T00:15:44;46.30;;;20.10;;
69280;SDS011;56392;51.082;17.080;2022-11-12T00:20:47;46.65;;;19.83;;
69280;SDS011;56392;51.082;17.080;2022-11-12T00:25:58;42.67;;;20.20;;
69280;SDS011;56392;51.082;17.080;2022-11-12T00:31:05;42.90;;;20.63;;
69280;SDS011;56392;51.082;17.080;2022-11-12T00:36:09;44.50;;;20.48;;
69280;SDS011;56392;51.082;17.080;2022-11-12T00:41:13;49.10;;;23.43;;
69280;SDS011;56392;51.082;17.080;2022-11-12T00:46:16;49.80;;;23.65;;
69280;SDS011;56392;51.082;17.080;2022-11-12T00:51:19;48.58;;;23.17;;
69280;SDS011;56392;51.082;17.080;2022-11-12T00:56:23;50.00;;;23.33;;
69280;SDS011;56392;51.082;17.080;2022-11-12T01:01:26;46.50;;;21.50;;
69280;SDS011;56392;51.082;17.080;2022-11-12T01:06:28;48.65;;;22.90;;
69280;SDS011;56392;51.082;17.080;2022-11-12T01:11:33;49.35;;;21.83;;
69280;SDS011;56392;51.082;17.080;2022-11-12T01:16:37;53.37;;;22.97;;
69280;SDS011;56392;51.082;17.080;2022-11-12T01:21:43;46.80;;;22.40;;
69280;SDS011;56392;51.082;17.080;2022-11-12T01:26:47;48.25;;;21.30;;
69280;SDS011;56392;51.082;17.080;2022-11-12T01:31:50;48.53;;;22.13;;
69280;SDS011;56392;51.082;17.080;2022-11-12T01:36:53;51.13;;;21.75;;
69280;SDS011;56392;51.082;17.080;2022-11-12T01:41:57;49.45;;;21.90;;
69280;SDS011;56392;51.082;17.080;2022-11-12T01:47:02;46.70;;;20.50;;
69280;SDS011;56392;51.082;17.080;2022-11-12T01:52:09;44.17;;;20.57;;
69280;SDS011;56392;51.082;17.080;2022-11-12T01:57:20;44.83;;;20.35;;
69280;SDS011;56392;51.082;17.080;2022-11-12T02:02:26;46.45;;;20.65;;
69280;SDS011;56392;51.082;17.080;2022-11-12T02:07:29;41.57;;;19.30;;
69280;SDS011;56392;51.082;17.080;2022-11-12T02:12:35;38.80;;;18.48;;
69280;SDS011;56392;51.082;17.080;2022-11-12T02:17:57;38.88;;;17.15;;
69280;SDS011;56392;51.082;17.080;2022-11-12T02:23:01;36.73;;;17.10;;
69280;SDS011;56392;51.082;17.080;2022-11-12T02:28:05;35.95;;;16.48;;
69280;SDS011;56392;51.082;17.080;2022-11-12T02:33:09;33.80;;;16.17;;
69280;SDS011;56392;51.082;17.080;2022-11-12T02:38:13;33.17;;;16.13;;
69280;SDS011;56392;51.082;17.080;2022-11-12T02:43:16;28.27;;;14.60;;
69280;SDS011;56392;51.082;17.080;2022-11-12T02:48:18;28.52;;;13.85;;
69280;SDS011;56392;51.082;17.080;2022-11-12T02:53:22;31.98;;;14.80;;
69280;SDS011;56392;51.082;17.080;2022-11-12T02:58:25;32.40;;;14.40;;
69280;SDS011;56392;51.082;17.080;2022-11-12T03:03:29;29.65;;;14.48;;
69280;SDS011;56392;51.082;17.080;2022-11-12T03:08:33;28.95;;;13.88;;
69280;SDS011;56392;51.082;17.080;2022-11-12T03:13:36;31.30;;;14.17;;
69280;SDS011;56392;51.082;17.080;2022-11-12T03:18:39;31.10;;;13.45;;
69280;SDS011;56392;51.082;17.080;2022-11-12T03:23:43;26.98;;;13.13;;
69280;SDS011;56392;51.082;17.080;2022-11-12T03:28:45;26.00;;;12.30;;
69280;SDS011;56392;51.082;17.080;2022-11-12T03:33:48;23.40;;;10.97;;
69280;SDS011;56392;51.082;17.080;2022-11-12T03:38:52;21.92;;;10.45;;
69280;SDS011;56392;51.082;17.080;2022-11-12T03:43:55;20.73;;;9.50;;
69280;SDS011;56392;51.082;17.080;2022-11-12T03:48:58;19.57;;;9.17;;
69280;SDS011;56392;51.082;17.080;2022-11-12T03:54:04;18.90;;;8.52;;
69280;SDS011;56392;51.082;17.080;2022-11-12T03:59:07;22.48;;;9.10;;
69280;SDS011;56392;51.082;17.080;2022-11-12T04:04:10;19.03;;;8.03;;
69280;SDS011;56392;51.082;17.080;2022-11-12T04:09:14;19.92;;;8.52;;
69280;SDS011;56392;51.082;17.080;2022-11-12T04:14:17;16.88;;;7.75;;
69280;SDS011;56392;51.082;17.080;2022-11-12T04:19:20;19.30;;;7.70;;
69280;SDS011;56392;51.082;17.080;2022-11-12T04:24:41;18.03;;;7.77;;
69280;SDS011;56392;51.082;17.080;2022-11-12T04:30:00;17.25;;;7.20;;
69280;SDS011;56392;51.082;17.080;2022-11-12T04:35:19;17.25;;;8.15;;
69280;SDS011;56392;51.082;17.080;2022-11-12T04:40:24;18.40;;;7.53;;
69280;SDS011;56392;51.082;17.080;2022-11-12T04:45:46;19.02;;;8.23;;
69280;SDS011;56392;51.082;17.080;2022-11-12T04:50:54;18.15;;;7.93;;
69280;SDS011;56392;51.082;17.080;2022-11-12T04:56:01;22.43;;;8.53;;
69280;SDS011;56392;51.082;17.080;2022-11-12T05:01:03;20.42;;;8.32;;
69280;SDS011;56392;51.082;17.080;2022-11-12T05:06:06;22.20;;;8.35;;
69280;SDS011;56392;51.082;17.080;2022-11-12T05:11:31;19.27;;;7.70;;
69280;SDS011;56392;51.082;17.080;2022-11-12T05:16:34;17.80;;;7.90;;
69280;SDS011;56392;51.082;17.080;2022-11-12T05:21:37;20.13;;;7.78;;
69280;SDS011;56392;51.082;17.080;2022-11-12T05:26:58;18.17;;;8.48;;
69280;SDS011;56392;51.082;17.080;2022-11-12T05:32:01;19.67;;;7.70;;
69280;SDS011;56392;51.082;17.080;2022-11-12T05:37:04;19.52;;;8.82;;
69280;SDS011;56392;51.082;17.080;2022-11-12T05:42:09;19.55;;;8.52;;
69280;SDS011;56392;51.082;17.080;2022-11-12T05:47:12;20.60;;;8.63;;
69280;SDS011;56392;51.082;17.080;2022-11-12T05:52:14;20.67;;;8.98;;
69280;SDS011;56392;51.082;17.080;2022-11-12T05:57:18;20.88;;;8.65;;
69280;SDS011;56392;51.082;17.080;2022-11-12T06:02:21;22.37;;;8.50;;
69280;SDS011;56392;51.082;17.080;2022-11-12T06:07:24;20.17;;;8.53;;
69280;SDS011;56392;51.082;17.080;2022-11-12T06:12:28;20.02;;;8.18;;
69280;SDS011;56392;51.082;17.080;2022-11-12T06:17:31;19.80;;;8.40;;
69280;SDS011;56392;51.082;17.080;2022-11-12T06:22:34;23.23;;;8.43;;
69280;SDS011;56392;51.082;17.080;2022-11-12T06:27:38;23.33;;;8.57;;
69280;SDS011;56392;51.082;17.080;2022-11-12T06:32:40;21.88;;;9.57;;
69280;SDS011;56392;51.082;17.080;2022-11-12T06:37:43;22.97;;;8.90;;
69280;SDS011;56392;51.082;17.080;2022-11-12T06:42:48;21.17;;;8.70;;
69280;SDS011;56392;51.082;17.080;2022-11-12T06:47:57;20.42;;;8.57;;
69280;SDS011;56392;51.082;17.080;2022-11-12T06:53:00;20.93;;;8.77;;
69280;SDS011;56392;51.082;17.080;2022-11-12T06:58:04;24.00;;;8.77;;
69280;SDS011;56392;51.082;17.080;2022-11-12T07:03:07;21.50;;;9.27;;
69280;SDS011;56392;51.082;17.080;2022-11-12T07:08:11;23.17;;;9.93;;
69280;SDS011;56392;51.082;17.080;2022-11-12T07:13:15;19.57;;;9.27;;
69280;SDS011;56392;51.082;17.080;2022-11-12T07:18:19;24.00;;;10.57;;
69280;SDS011;56392;51.082;17.080;2022-11-12T07:23:21;22.83;;;10.30;;
69280;SDS011;56392;51.082;17.080;2022-11-12T07:28:25;25.27;;;10.73;;
69280;SDS011;56392;51.082;17.080;2022-11-12T07:33:28;25.45;;;10.30;;
69280;SDS011;56392;51.082;17.080;2022-11-12T07:38:32;26.90;;;11.20;;
69280;SDS011;56392;51.082;17.080;2022-11-12T07:43:37;46.50;;;16.97;;
69280;SDS011;56392;51.082;17.080;2022-11-12T07:48:41;52.27;;;18.83;;
69280;SDS011;56392;51.082;17.080;2022-11-12T07:53:45;58.38;;;21.90;;
69280;SDS011;56392;51.082;17.080;2022-11-12T07:58:50;68.35;;;23.50;;
69280;SDS011;56392;51.082;17.080;2022-11-12T08:03:53;91.23;;;31.80;;
69280;SDS011;56392;51.082;17.080;2022-11-12T08:08:56;78.05;;;27.75;;
69280;SDS011;56392;51.082;17.080;2022-11-12T08:14:02;65.30;;;22.65;;
69280;SDS011;56392;51.082;17.080;2022-11-12T08:19:05;57.37;;;20.13;;
69280;SDS011;56392;51.082;17.080;2022-11-12T08:24:08;55.33;;;21.02;;
69280;SDS011;56392;51.082;17.080;2022-11-12T08:29:12;32.05;;;14.05;;
69280;SDS011;56392;51.082;17.080;2022-11-12T08:34:14;23.53;;;11.50;;
69280;SDS011;56392;51.082;17.080;2022-11-12T08:39:17;22.90;;;10.13;;
69280;SDS011;56392;51.082;17.080;2022-11-12T08:44:21;19.35;;;8.73;;
69280;SDS011;56392;51.082;17.080;2022-11-12T08:49:24;16.65;;;8.15;;
69280;SDS011;56392;51.082;17.080;2022-11-12T08:54:26;13.37;;;5.60;;
69280;SDS011;56392;51.082;17.080;2022-11-12T08:59:31;17.02;;;6.28;;
69280;SDS011;56392;51.082;17.080;2022-11-12T09:04:34;13.70;;;5.82;;
69280;SDS011;56392;51.082;17.080;2022-11-12T09:09:37;12.70;;;5.40;;
69280;SDS011;56392;51.082;17.080;2022-11-12T09:14:41;10.23;;;5.30;;
69280;SDS011;56392;51.082;17.080;2022-11-12T09:19:44;13.50;;;5.68;;
69280;SDS011;56392;51.082;17.080;2022-11-12T09:24:46;11.50;;;5.20;;
69280;SDS011;56392;51.082;17.080;2022-11-12T09:29:50;13.37;;;5.50;;
69280;SDS011;56392;51.082;17.080;2022-11-12T09:34:53;13.23;;;6.00;;
69280;SDS011;56392;51.082;17.080;2022-11-12T09:39:56;12.55;;;5.57;;
69280;SDS011;56392;51.082;17.080;2022-11-12T09:45:00;14.73;;;5.73;;
69280;SDS011;56392;51.082;17.080;2022-11-12T09:50:11;14.38;;;5.90;;
69280;SDS011;56392;51.082;17.080;2022-11-12T09:55:20;12.68;;;5.28;;
69280;SDS011;56392;51.082;17.080;2022-11-12T10:00:28;12.87;;;5.50;;
69280;SDS011;56392;51.082;17.080;2022-11-12T10:05:32;14.02;;;5.53;;
69280;SDS011;56392;51.082;17.080;2022-11-12T10:10:40;13.38;;;6.00;;
69280;SDS011;56392;51.082;17.080;2022-11-12T10:15:50;14.13;;;6.00;;
69280;SDS011;56392;51.082;17.080;2022-11-12T10:21:29;14.30;;;5.97;;
69280;SDS011;56392;51.082;17.080;2022-11-12T10:26:37;14.13;;;5.60;;
69280;SDS011;56392;51.082;17.080;2022-11-12T10:31:42;13.40;;;5.95;;
69280;SDS011;56392;51.082;17.080;2022-11-12T10:36:47;11.47;;;5.37;;
69280;SDS011;56392;51.082;17.080;2022-11-12T10:42:00;12.43;;;5.72;;
69280;SDS011;56392;51.082;17.080;2022-11-12T10:52:31;17.20;;;6.63;;
69280;SDS011;56392;51.082;17.080;2022-11-12T10:57:34;15.55;;;6.10;;
69280;SDS011;56392;51.082;17.080;2022-11-12T11:02:38;15.55;;;6.57;;
69280;SDS011;56392;51.082;17.080;2022-11-12T11:07:48;15.60;;;6.10;;
69280;SDS011;56392;51.082;17.080;2022-11-12T11:18:27;15.05;;;6.20;;
69280;SDS011;56392;51.082;17.080;2022-11-12T11:23:32;16.30;;;6.57;;
69280;SDS011;56392;51.082;17.080;2022-11-12T11:28:42;14.70;;;5.70;;
69280;SDS011;56392;51.082;17.080;2022-11-12T11:33:55;14.85;;;6.35;;
69280;SDS011;56392;51.082;17.080;2022-11-12T11:39:05;12.73;;;6.18;;
69280;SDS011;56392;51.082;17.080;2022-11-12T11:44:23;18.27;;;7.37;;
69280;SDS011;56392;51.082;17.080;2022-11-12T11:55:15;10.40;;;4.32;;
69280;SDS011;56392;51.082;17.080;2022-11-12T12:00:29;11.30;;;4.63;;
69280;SDS011;56392;51.082;17.080;2022-11-12T12:05:44;11.47;;;4.30;;
69280;SDS011;56392;51.082;17.080;2022-11-12T12:10:59;11.77;;;3.80;;
69280;SDS011;56392;51.082;17.080;2022-11-12T12:16:12;11.77;;;3.88;;
69280;SDS011;56392;51.082;17.080;2022-11-12T12:21:24;11.87;;;3.67;;
69280;SDS011;56392;51.082;17.080;2022-11-12T12:26:34;11.15;;;3.67;;
69280;SDS011;56392;51.082;17.080;2022-11-12T12:31:42;12.88;;;4.10;;
69280;SDS011;56392;51.082;17.080;2022-11-12T12:36:51;14.17;;;4.30;;
69280;SDS011;56392;51.082;17.080;2022-11-12T12:41:59;11.20;;;3.85;;
69280;SDS011;56392;51.082;17.080;2022-11-12T12:47:06;11.73;;;4.03;;
69280;SDS011;56392;51.082;17.080;2022-11-12T12:52:14;9.77;;;4.00;;
69280;SDS011;56392;51.082;17.080;2022-11-12T12:57:30;14.03;;;4.00;;
69280;SDS011;56392;51.082;17.080;2022-11-12T13:02:36;12.80;;;5.15;;
69280;SDS011;56392;51.082;17.080;2022-11-12T13:07:41;12.82;;;4.60;;
69280;SDS011;56392;51.082;17.080;2022-11-12T13:13:00;11.17;;;4.60;;
69280;SDS011;56392;51.082;17.080;2022-11-12T13:18:06;12.20;;;4.85;;
69280;SDS011;56392;51.082;17.080;2022-11-12T13:29:16;11.50;;;4.50;;
69280;SDS011;56392;51.082;17.080;2022-11-12T13:34:40;11.38;;;4.25;;
69280;SDS011;56392;51.082;17.080;2022-11-12T13:39:44;14.32;;;5.00;;
69280;SDS011;56392;51.082;17.080;2022-11-12T13:44:47;15.43;;;4.67;;
69280;SDS011;56392;51.082;17.080;2022-11-12T13:49:50;11.47;;;4.57;;
69280;SDS011;56392;51.082;17.080;2022-11-12T13:55:01;11.82;;;4.50;;
69280;SDS011;56392;51.082;17.080;2022-11-12T14:00:21;12.38;;;5.20;;
69280;SDS011;56392;51.082;17.080;2022-11-12T14:05:26;12.47;;;5.67;;
69280;SDS011;56392;51.082;17.080;2022-11-12T14:10:35;12.18;;;5.10;;
69280;SDS011;56392;51.082;17.080;2022-11-12T14:15:53;13.10;;;5.90;;
69280;SDS011;56392;51.082;17.080;2022-11-12T14:21:04;11.77;;;5.10;;
69280;SDS011;56392;51.082;17.080;2022-11-12T14:26:09;14.80;;;6.47;;
69280;SDS011;56392;51.082;17.080;2022-11-12T14:31:13;16.58;;;8.15;;
69280;SDS011;56392;51.082;17.080;2022-11-12T14:36:17;22.37;;;9.83;;
69280;SDS011;56392;51.082;17.080;2022-11-12T14:41:22;22.70;;;10.37;;
69280;SDS011;56392;51.082;17.080;2022-11-12T14:46:27;24.20;;;10.45;;
69280;SDS011;56392;51.082;17.080;2022-11-12T14:51:35;23.08;;;10.27;;
69280;SDS011;56392;51.082;17.080;2022-11-12T14:56:44;21.77;;;8.47;;
69280;SDS011;56392;51.082;17.080;2022-11-12T15:02:03;23.42;;;8.30;;
69280;SDS011;56392;51.082;17.080;2022-11-12T15:07:21;19.30;;;7.80;;
69280;SDS011;56392;51.082;17.080;2022-11-12T15:12:28;17.50;;;7.63;;
69280;SDS011;56392;51.082;17.080;2022-11-12T15:17:33;17.55;;;7.43;;
69280;SDS011;56392;51.082;17.080;2022-11-12T15:22:37;17.85;;;7.30;;
69280;SDS011;56392;51.082;17.080;2022-11-12T15:27:41;16.13;;;7.00;;
69280;SDS011;56392;51.082;17.080;2022-11-12T15:32:44;17.13;;;7.47;;
69280;SDS011;56392;51.082;17.080;2022-11-12T15:37:47;16.05;;;7.18;;
69280;SDS011;56392;51.082;17.080;2022-11-12T15:42:52;19.55;;;7.47;;
69280;SDS011;56392;51.082;17.080;2022-11-12T15:47:54;19.03;;;8.33;;
69280;SDS011;56392;51.082;17.080;2022-11-12T15:52:58;19.38;;;7.70;;
69280;SDS011;56392;51.082;17.080;2022-11-12T15:58:02;18.67;;;8.15;;
69280;SDS011;56392;51.082;17.080;2022-11-12T16:03:10;20.43;;;8.77;;
69280;SDS011;56392;51.082;17.080;2022-11-12T16:08:15;23.88;;;9.55;;
69280;SDS011;56392;51.082;17.080;2022-11-12T16:13:22;21.63;;;10.70;;
69280;SDS011;56392;51.082;17.080;2022-11-12T16:18:28;24.97;;;12.40;;
69280;SDS011;56392;51.082;17.080;2022-11-12T16:23:31;27.43;;;14.07;;
69280;SDS011;56392;51.082;17.080;2022-11-12T16:28:35;29.50;;;12.82;;
69280;SDS011;56392;51.082;17.080;2022-11-12T16:33:38;23.58;;;12.25;;
69280;SDS011;56392;51.082;17.080;2022-11-12T16:38:41;26.27;;;12.77;;
69280;SDS011;56392;51.082;17.080;2022-11-12T16:43:45;26.20;;;13.15;;
69280;SDS011;56392;51.082;17.080;2022-11-12T16:48:48;26.77;;;13.90;;
69280;SDS011;56392;51.082;17.080;2022-11-12T16:53:51;30.40;;;15.20;;
69280;SDS011;56392;51.082;17.080;2022-11-12T16:58:55;26.27;;;13.85;;
69280;SDS011;56392;51.082;17.080;2022-11-12T17:03:58;28.13;;;12.75;;
69280;SDS011;56392;51.082;17.080;2022-11-12T17:09:01;27.63;;;13.27;;
69280;SDS011;56392;51.082;17.080;2022-11-12T17:14:07;30.47;;;14.80;;
69280;SDS011;56392;51.082;17.080;2022-11-12T17:19:11;31.23;;;13.95;;
69280;SDS011;56392;51.082;17.080;2022-11-12T17:24:13;27.27;;;12.38;;
69280;SDS011;56392;51.082;17.080;2022-11-12T17:29:17;33.17;;;14.00;;
69280;SDS011;56392;51.082;17.080;2022-11-12T17:34:20;28.70;;;14.13;;
69280;SDS011;56392;51.082;17.080;2022-11-12T17:39:23;31.13;;;14.55;;
69280;SDS011;56392;51.082;17.080;2022-11-12T17:44:27;30.03;;;13.70;;
69280;SDS011;56392;51.082;17.080;2022-11-12T17:49:29;28.67;;;13.57;;
69280;SDS011;56392;51.082;17.080;2022-11-12T17:54:32;34.33;;;14.02;;
69280;SDS011;56392;51.082;17.080;2022-11-12T17:59:36;29.60;;;14.07;;
69280;SDS011;56392;51.082;17.080;2022-11-12T18:04:39;29.60;;;14.00;;
69280;SDS011;56392;51.082;17.080;2022-11-12T18:09:42;33.72;;;15.55;;
69280;SDS011;56392;51.082;17.080;2022-11-12T18:14:46;29.27;;;13.60;;
69280;SDS011;56392;51.082;17.080;2022-11-12T18:19:49;30.17;;;14.13;;
69280;SDS011;56392;51.082;17.080;2022-11-12T18:24:52;30.60;;;15.07;;
69280;SDS011;56392;51.082;17.080;2022-11-12T18:29:56;37.10;;;15.05;;
69280;SDS011;56392;51.082;17.080;2022-11-12T18:34:58;36.87;;;15.73;;
69280;SDS011;56392;51.082;17.080;2022-11-12T18:40:01;45.83;;;18.67;;
69280;SDS011;56392;51.082;17.080;2022-11-12T18:45:07;63.42;;;21.80;;
69280;SDS011;56392;51.082;17.080;2022-11-12T18:50:10;56.50;;;21.30;;
69280;SDS011;56392;51.082;17.080;2022-11-12T18:55:13;56.67;;;22.40;;
69280;SDS011;56392;51.082;17.080;2022-11-12T19:00:17;58.05;;;25.02;;
69280;SDS011;56392;51.082;17.080;2022-11-12T19:05:21;58.92;;;25.77;;
69280;SDS011;56392;51.082;17.080;2022-11-12T19:10:24;60.87;;;28.77;;
69280;SDS011;56392;51.082;17.080;2022-11-12T19:15:28;66.00;;;33.70;;
69280;SDS011;56392;51.082;17.080;2022-11-12T19:20:30;92.18;;;42.92;;
69280;SDS011;56392;51.082;17.080;2022-11-12T19:25:33;82.70;;;40.23;;
69280;SDS011;56392;51.082;17.080;2022-11-12T19:30:37;74.47;;;36.05;;
69280;SDS011;56392;51.082;17.080;2022-11-12T19:35:40;70.40;;;33.65;;
69280;SDS011;56392;51.082;17.080;2022-11-12T19:40:43;61.83;;;29.77;;
69280;SDS011;56392;51.082;17.080;2022-11-12T19:45:46;60.97;;;29.27;;
69280;SDS011;56392;51.082;17.080;2022-11-12T19:50:49;64.38;;;28.83;;
69280;SDS011;56392;51.082;17.080;2022-11-12T19:55:52;60.47;;;27.30;;
69280;SDS011;56392;51.082;17.080;2022-11-12T20:01:02;50.53;;;24.40;;
69280;SDS011;56392;51.082;17.080;2022-11-12T20:06:06;53.50;;;24.80;;
69280;SDS011;56392;51.082;17.080;2022-11-12T20:11:10;54.83;;;25.52;;
69280;SDS011;56392;51.082;17.080;2022-11-12T20:16:15;48.87;;;24.37;;
69280;SDS011;56392;51.082;17.080;2022-11-12T20:21:18;54.25;;;25.92;;
69280;SDS011;56392;51.082;17.080;2022-11-12T20:26:21;51.33;;;26.33;;
69280;SDS011;56392;51.082;17.080;2022-11-12T20:31:26;55.70;;;28.50;;
69280;SDS011;56392;51.082;17.080;2022-11-12T20:36:29;54.03;;;27.30;;
69280;SDS011;56392;51.082;17.080;2022-11-12T20:41:32;54.03;;;27.55;;
69280;SDS011;56392;51.082;17.080;2022-11-12T20:46:36;56.13;;;27.58;;
69280;SDS011;56392;51.082;17.080;2022-11-12T20:51:39;52.90;;;27.97;;
69280;SDS011;56392;51.082;17.080;2022-11-12T20:56:42;54.90;;;25.67;;
69280;SDS011;56392;51.082;17.080;2022-11-12T21:01:46;59.60;;;26.52;;
69280;SDS011;56392;51.082;17.080;2022-11-12T21:06:49;51.67;;;26.10;;
69280;SDS011;56392;51.082;17.080;2022-11-12T21:11:55;53.53;;;27.42;;
69280;SDS011;56392;51.082;17.080;2022-11-12T21:16:59;57.08;;;28.83;;
69280;SDS011;56392;51.082;17.080;2022-11-12T21:22:02;63.00;;;29.63;;
69280;SDS011;56392;51.082;17.080;2022-11-12T21:27:05;52.73;;;25.60;;
69280;SDS011;56392;51.082;17.080;2022-11-12T21:32:09;59.90;;;28.45;;
69280;SDS011;56392;51.082;17.080;2022-11-12T21:37:11;55.30;;;27.55;;
69280;SDS011;56392;51.082;17.080;2022-11-12T21:42:14;53.70;;;26.80;;
69280;SDS011;56392;51.082;17.080;2022-11-12T21:47:18;57.72;;;26.25;;
69280;SDS011;56392;51.082;17.080;2022-11-12T21:52:21;53.40;;;25.08;;
69280;SDS011;56392;51.082;17.080;2022-11-12T21:57:24;58.57;;;27.97;;
69280;SDS011;56392;51.082;17.080;2022-11-12T22:02:28;62.97;;;29.27;;
69280;SDS011;56392;51.082;17.080;2022-11-12T22:07:31;57.55;;;26.55;;
69280;SDS011;56392;51.082;17.080;2022-11-12T22:12:34;51.13;;;25.63;;
69280;SDS011;56392;51.082;17.080;2022-11-12T22:17:38;55.93;;;25.53;;
69280;SDS011;56392;51.082;17.080;2022-11-12T22:22:43;54.13;;;26.83;;
69280;SDS011;56392;51.082;17.080;2022-11-12T22:27:46;55.47;;;26.17;;
69280;SDS011;56392;51.082;17.080;2022-11-12T22:32:50;54.40;;;26.77;;
69280;SDS011;56392;51.082;17.080;2022-11-12T22:37:53;60.90;;;26.67;;
69280;SDS011;56392;51.082;17.080;2022-11-12T22:42:56;66.18;;;28.15;;
69280;SDS011;56392;51.082;17.080;2022-11-12T22:48:00;62.20;;;28.00;;
69280;SDS011;56392;51.082;17.080;2022-11-12T22:53:02;61.50;;;27.33;;
69280;SDS011;56392;51.082;17.080;2022-11-12T22:58:05;62.88;;;28.38;;
69280;SDS011;56392;51.082;17.080;2022-11-12T23:03:10;64.53;;;29.10;;
69280;SDS011;56392;51.082;17.080;2022-11-12T23:08:13;67.90;;;30.67;;
69280;SDS011;56392;51.082;17.080;2022-11-12T23:13:16;72.47;;;32.08;;
69280;SDS011;56392;51.082;17.080;2022-11-12T23:18:20;71.00;;;31.60;;
69280;SDS011;56392;51.082;17.080;2022-11-12T23:23:22;67.93;;;31.67;;
69280;SDS011;56392;51.082;17.080;2022-11-12T23:28:25;59.30;;;30.02;;
69280;SDS011;56392;51.082;17.080;2022-11-12T23:33:29;63.88;;;29.90;;
69280;SDS011;56392;51.082;17.080;2022-11-12T23:38:32;63.33;;;30.47;;
69280;SDS011;56392;51.082;17.080;2022-11-12T23:43:35;58.88;;;28.48;;
69280;SDS011;56392;51.082;17.080;2022-11-12T23:48:39;67.90;;;30.95;;
69280;SDS011;56392;51.082;17.080;2022-11-12T23:53:42;65.63;;;31.30;;
69280;SDS011;56392;51.082;17.080;2022-11-12T23:58:45;67.60;;;32.70;;
